Terminal Aerodrome Forecast
Issued by NWS

Home | Current Version | Previous Version | Text Only | Print | Product List | Glossary On
Versions: 1 2 3 4 5 6 7 8 9 10 11 12 13 14 15
722
FTUS41 KBTV 290520
TAFMSS
TAF
KMSS 290520Z 2906/3006 VRB03KT 1SM BR BKN008
     FM291100 VRB03KT P6SM BKN025
     FM291400 26005KT P6SM BKN035
     FM291600 24004KT P6SM SCT090=

USA.gov is the U.S. government's official web portal to all federal, state and local government web resources and services.